Time;durP1;ratioP1;P1;durP2;ratioP2;P2;SDS_P1;SDS_P2;PMS_P1;PMS_P2;Temp;Humidity;BMP_temperature;BMP_pressure;BME280_temperature;BME280_humidity;BME280_pressure;Samples;Min_cycle;Max_cycle;Signal;HPM_P1;HPM_P2
2020/12/18 00:00:23;;;;;;;31.70;16.52;;;6.00;99.90;;;;;;4922147;29;20059;-71
2020/12/18 00:02:48;;;;;;;29.95;16.75;;;6.00;99.90;;;;;;4921790;29;20028;-71
2020/12/18 00:05:14;;;;;;;31.05;16.70;;;5.90;99.90;;;;;;4921669;29;20032;-70
2020/12/18 00:07:42;;;;;;;29.52;16.83;;;5.80;99.90;;;;;;4922141;29;20488;-71
2020/12/18 00:10:08;;;;;;;34.17;16.92;;;5.80;99.90;;;;;;4921464;29;20055;-71
2020/12/18 00:12:33;;;;;;;35.78;18.25;;;5.70;99.90;;;;;;4921570;29;20782;-71
2020/12/18 00:14:59;;;;;;;34.00;17.30;;;5.70;99.90;;;;;;4922640;29;20039;-70
2020/12/18 00:17:25;;;;;;;33.88;17.90;;;5.80;99.90;;;;;;4924956;29;20028;-71
2020/12/18 00:19:50;;;;;;;33.08;16.52;;;5.80;99.90;;;;;;4923847;29;20594;-71
2020/12/18 00:22:16;;;;;;;38.00;17.75;;;5.80;99.90;;;;;;4925523;29;20727;-71
2020/12/18 00:24:43;;;;;;;34.65;17.45;;;5.80;99.90;;;;;;4923608;29;20039;-71
2020/12/18 00:27:10;;;;;;;31.27;16.55;;;5.90;99.90;;;;;;4925056;29;20071;-71
2020/12/18 00:29:35;;;;;;;31.92;16.83;;;5.80;99.90;;;;;;4925217;29;20039;-71
2020/12/18 00:32:05;;;;;;;29.67;16.42;;;5.80;99.90;;;;;;4924843;29;20086;-71
2020/12/18 00:34:31;;;;;;;30.50;17.05;;;5.80;99.90;;;;;;4925628;29;20024;-70
2020/12/18 00:36:57;;;;;;;30.88;16.70;;;5.70;99.90;;;;;;4923445;29;20040;-71
2020/12/18 00:39:22;;;;;;;36.75;17.83;;;5.80;99.90;;;;;;4924802;29;20042;-71
2020/12/18 00:41:54;;;;;;;33.03;17.00;;;5.80;99.90;;;;;;4924944;29;20047;-70
2020/12/18 00:44:21;;;;;;;36.35;17.08;;;5.90;99.90;;;;;;4925081;29;20723;-71
2020/12/18 00:46:47;;;;;;;30.05;17.67;;;5.80;99.90;;;;;;4924439;29;20090;-71
2020/12/18 00:49:13;;;;;;;36.20;18.17;;;5.90;99.90;;;;;;4925085;29;20031;-71
2020/12/18 00:51:39;;;;;;;33.78;18.00;;;5.90;99.90;;;;;;4924672;29;20102;-71
2020/12/18 00:54:05;;;;;;;37.22;18.65;;;5.90;99.90;;;;;;4924486;29;20496;-71
2020/12/18 00:56:32;;;;;;;36.67;18.35;;;6.00;99.90;;;;;;4922852;29;20034;-72
2020/12/18 00:58:58;;;;;;;32.58;18.30;;;6.00;99.90;;;;;;4939244;28;20122;-72
2020/12/18 01:01:24;;;;;;;33.58;18.00;;;6.00;99.90;;;;;;4924354;29;20401;-71
2020/12/18 01:03:50;;;;;;;31.77;16.08;;;6.10;99.90;;;;;;4925001;29;20023;-72
2020/12/18 01:06:17;;;;;;;30.77;16.23;;;6.20;99.90;;;;;;4923176;29;20038;-72
2020/12/18 01:08:58;;;;;;;31.85;16.55;;;6.20;99.90;;;;;;4922671;29;20099;-72
2020/12/18 01:11:29;;;;;;;31.88;16.50;;;6.20;99.90;;;;;;4938992;28;20042;-72
2020/12/18 01:13:55;;;;;;;28.50;14.77;;;6.30;99.90;;;;;;4924671;29;20032;-72
2020/12/18 01:16:21;;;;;;;27.88;14.75;;;6.30;99.90;;;;;;4922375;29;20043;-72
2020/12/18 01:18:53;;;;;;;26.65;15.73;;;6.30;99.90;;;;;;4923268;29;20039;-72
2020/12/18 01:21:19;;;;;;;26.70;16.08;;;6.30;99.90;;;;;;4924828;29;20131;-72
2020/12/18 01:23:45;;;;;;;28.50;15.50;;;6.30;99.90;;;;;;4939100;28;20038;-73
2020/12/18 01:26:13;;;;;;;28.23;14.70;;;6.30;99.90;;;;;;4938794;28;20040;-72
2020/12/18 01:28:40;;;;;;;24.90;14.98;;;6.20;99.90;;;;;;4917192;29;20166;-72
2020/12/18 01:31:06;;;;;;;28.60;14.50;;;6.20;99.90;;;;;;4922680;29;20103;-73
2020/12/18 01:33:34;;;;;;;26.23;14.43;;;6.10;99.90;;;;;;4938910;28;20031;-72
2020/12/18 01:36:05;;;;;;;29.92;15.65;;;6.20;99.90;;;;;;4938298;28;20039;-72
2020/12/18 01:38:33;;;;;;;31.25;15.82;;;6.20;99.90;;;;;;4945890;28;20031;-72
2020/12/18 01:40:59;;;;;;;31.88;15.93;;;6.10;99.90;;;;;;4923981;29;20031;-72
2020/12/18 01:43:25;;;;;;;34.13;16.80;;;6.00;99.90;;;;;;4938070;28;20039;-72
2020/12/18 01:45:51;;;;;;;35.35;17.42;;;6.00;99.90;;;;;;4921731;29;20042;-72
2020/12/18 01:48:19;;;;;;;30.80;16.55;;;6.00;99.90;;;;;;4922061;29;20126;-72
2020/12/18 01:50:56;;;;;;;25.45;14.88;;;6.10;99.90;;;;;;4924133;29;20457;-72
2020/12/18 01:53:29;;;;;;;31.98;16.27;;;6.10;99.90;;;;;;4938118;28;20039;-71
2020/12/18 01:56:12;;;;;;;21.58;11.02;;;6.10;99.90;;;;;;4922400;29;20097;-71
2020/12/18 01:58:40;;;;;;;26.60;15.27;;;6.10;99.90;;;;;;4938371;28;20031;-71
2020/12/18 02:01:12;;;;;;;25.52;14.65;;;6.10;99.90;;;;;;4938185;28;20028;-71
2020/12/18 02:03:53;;;;;;;28.45;15.05;;;6.10;99.90;;;;;;4938492;28;20083;-71
2020/12/18 02:06:29;;;;;;;29.55;15.38;;;6.10;99.90;;;;;;4922082;29;20042;-71
2020/12/18 02:09:06;;;;;;;28.80;14.63;;;6.10;99.90;;;;;;4937751;28;20048;-71
2020/12/18 02:11:43;;;;;;;31.45;16.75;;;6.10;99.90;;;;;;4923895;29;20046;-71
2020/12/18 02:14:14;;;;;;;30.70;15.77;;;6.20;99.90;;;;;;4938563;28;20584;-71
2020/12/18 02:16:42;;;;;;;28.58;15.63;;;6.20;99.90;;;;;;4916167;29;20054;-71
2020/12/18 02:19:19;;;;;;;31.35;15.00;;;6.20;99.90;;;;;;4938034;28;20047;-71
2020/12/18 02:21:45;;;;;;;24.83;14.38;;;6.10;99.90;;;;;;4923429;29;20047;-71
2020/12/18 02:24:25;;;;;;;25.52;15.05;;;6.10;99.90;;;;;;4922208;29;20028;-71
2020/12/18 02:26:55;;;;;;;28.58;14.80;;;6.20;99.90;;;;;;4917374;29;20040;-71
2020/12/18 02:29:22;;;;;;;27.05;14.05;;;6.20;99.90;;;;;;4923511;29;20032;-71
2020/12/18 02:31:57;;;;;;;28.08;15.23;;;6.30;99.90;;;;;;4921416;29;20089;-71
2020/12/18 02:34:34;;;;;;;30.17;14.52;;;6.20;99.90;;;;;;4921942;29;20118;-71
2020/12/18 02:37:06;;;;;;;28.92;15.73;;;6.20;99.90;;;;;;4921160;29;20527;-71
2020/12/18 02:39:35;;;;;;;24.40;13.90;;;6.20;99.90;;;;;;4922457;29;20108;-71
2020/12/18 02:42:06;;;;;;;27.75;14.70;;;6.10;99.90;;;;;;4921742;29;20039;-71
2020/12/18 02:44:41;;;;;;;;;;;6.10;99.90;;;;;;4915753;29;20046;-71
2020/12/18 02:47:30;;;;;;;28.88;14.23;;;6.10;99.90;;;;;;4925347;29;19915;-71
2020/12/18 02:49:57;;;;;;;31.98;15.18;;;6.10;99.90;;;;;;4925676;28;20050;-71
2020/12/18 02:52:37;;;;;;;26.02;14.43;;;6.10;99.90;;;;;;4937190;28;20118;-72
2020/12/18 02:55:32;;;;;;;27.45;14.50;;;6.10;99.90;;;;;;4919947;29;20548;-72
2020/12/18 02:58:16;;;;;;;29.52;14.70;;;6.10;99.90;;;;;;4923132;29;20049;-72
2020/12/18 03:00:46;;;;;;;27.92;14.60;;;6.10;99.90;;;;;;4936958;28;20591;-71
2020/12/18 03:03:12;;;;;;;27.98;15.15;;;6.10;99.90;;;;;;4922543;29;20031;-72
2020/12/18 03:05:40;;;;;;;31.05;15.57;;;6.20;99.90;;;;;;4914823;29;20440;-71
2020/12/18 03:08:16;;;;;;;26.73;15.77;;;6.20;99.90;;;;;;4920832;29;20035;-72
2020/12/18 03:10:42;;;;;;;26.27;14.57;;;6.20;99.90;;;;;;4937224;28;20058;-72
2020/12/18 03:13:08;;;;;;;28.48;15.10;;;6.20;99.90;;;;;;4937087;28;20142;-72
2020/12/18 03:15:34;;;;;;;25.55;14.35;;;6.20;99.90;;;;;;4921733;29;20027;-72
2020/12/18 03:18:13;;;;;;;26.40;14.07;;;6.10;99.90;;;;;;4937205;28;20160;-71
2020/12/18 03:20:39;;;;;;;29.27;15.20;;;6.10;99.90;;;;;;4922731;29;20523;-71
2020/12/18 03:23:43;;;;;;;28.13;14.65;;;6.10;99.90;;;;;;4922649;28;20048;-71
2020/12/18 03:26:29;;;;;;;29.67;14.95;;;6.00;99.90;;;;;;4920900;29;20050;-74
2020/12/18 03:29:01;;;;;;;27.42;15.10;;;6.00;99.90;;;;;;4921027;29;20036;-71
2020/12/18 03:31:28;;;;;;;25.27;14.30;;;5.90;99.90;;;;;;4936710;28;20114;-71
2020/12/18 03:33:54;;;;;;;30.60;15.73;;;5.90;99.90;;;;;;4921089;29;20032;-71
2020/12/18 03:36:28;;;;;;;30.50;15.20;;;5.90;99.90;;;;;;4936642;28;20032;-71
2020/12/18 03:38:56;;;;;;;33.70;16.00;;;5.90;99.90;;;;;;4921674;29;20452;-71
2020/12/18 03:41:26;;;;;;;29.08;15.02;;;5.90;99.90;;;;;;4938896;28;20031;-71
2020/12/18 03:43:52;;;;;;;27.55;14.70;;;5.90;99.90;;;;;;4920513;29;20036;-71
2020/12/18 03:46:18;;;;;;;29.35;15.73;;;5.90;99.90;;;;;;4936537;28;20036;-71
2020/12/18 03:48:49;;;;;;;26.30;14.88;;;5.90;99.90;;;;;;4922344;29;20087;-71
2020/12/18 03:51:27;;;;;;;29.33;15.15;;;5.90;99.90;;;;;;4924293;29;20038;-71
2020/12/18 03:53:53;;;;;;;28.75;15.70;;;5.90;99.90;;;;;;4941301;28;20042;-71
2020/12/18 03:56:33;;;;;;;28.45;15.05;;;5.90;99.90;;;;;;4940906;28;20038;-71
2020/12/18 03:59:17;;;;;;;29.25;14.93;;;5.90;99.90;;;;;;4924365;29;20044;-72
2020/12/18 04:02:01;;;;;;;30.85;16.02;;;5.90;99.90;;;;;;4940499;28;20035;-72
2020/12/18 04:04:28;;;;;;;29.90;15.80;;;5.90;99.90;;;;;;4923273;29;20114;-72
2020/12/18 04:06:58;;;;;;;29.75;15.02;;;5.90;99.90;;;;;;4925319;29;20408;-72
2020/12/18 04:09:24;;;;;;;29.52;15.38;;;5.80;99.90;;;;;;4924160;29;20035;-72
2020/12/18 04:11:58;;;;;;;27.48;15.07;;;5.80;99.90;;;;;;4939940;28;20099;-72
2020/12/18 04:14:29;;;;;;;29.17;15.40;;;5.80;99.90;;;;;;4940382;28;20066;-72
2020/12/18 04:17:04;;;;;;;29.30;16.00;;;5.80;99.90;;;;;;4924026;29;20518;-72
2020/12/18 04:19:31;;;;;;;32.17;16.27;;;5.80;99.90;;;;;;4940222;28;20123;-73
2020/12/18 04:21:58;;;;;;;30.23;15.93;;;5.70;99.90;;;;;;4939669;28;20028;-73
2020/12/18 04:24:43;;;;;;;32.20;15.90;;;5.70;99.90;;;;;;4925628;28;20779;-73
2020/12/18 04:27:11;;;;;;;28.10;14.52;;;5.60;99.90;;;;;;4923792;29;20098;-72
2020/12/18 04:29:37;;;;;;;31.73;15.90;;;5.60;99.90;;;;;;4923314;29;20720;-73
2020/12/18 04:32:04;;;;;;;36.20;16.35;;;5.50;99.90;;;;;;4923672;29;20042;-73
2020/12/18 04:34:30;;;;;;;33.35;16.00;;;5.50;99.90;;;;;;4925308;29;20028;-73
2020/12/18 04:37:10;;;;;;;35.25;15.90;;;5.50;99.90;;;;;;4923254;29;20031;-73
2020/12/18 04:39:56;;;;;;;29.90;15.77;;;5.50;99.90;;;;;;4920032;29;20044;-73
2020/12/18 04:42:26;;;;;;;31.27;16.75;;;5.60;99.90;;;;;;4924943;29;20240;-73
2020/12/18 04:44:52;;;;;;;34.13;16.80;;;5.60;99.90;;;;;;4923346;29;20043;-73
2020/12/18 04:47:21;;;;;;;30.75;16.08;;;5.70;99.90;;;;;;4923513;29;20144;-72
2020/12/18 04:49:49;;;;;;;27.35;15.25;;;5.70;99.90;;;;;;4923648;29;20040;-72
2020/12/18 04:52:22;;;;;;;28.08;15.73;;;5.70;99.90;;;;;;4939092;28;20043;-74
2020/12/18 04:54:58;;;;;;;30.45;15.75;;;5.70;99.90;;;;;;4925166;29;20062;-72
2020/12/18 04:57:50;;;;;;;28.15;14.68;;;5.80;99.90;;;;;;4924241;28;20214;-72
2020/12/18 05:00:22;;;;;;;34.85;16.10;;;5.80;99.90;;;;;;4938954;28;20738;-72
2020/12/18 05:03:06;;;;;;;25.92;15.15;;;5.80;99.90;;;;;;4924464;29;20072;-72
2020/12/18 05:05:32;;;;;;;26.02;15.10;;;5.80;99.90;;;;;;4923875;29;20040;-72
2020/12/18 05:08:05;;;;;;;33.83;17.17;;;5.80;99.90;;;;;;4924341;29;20039;-72
2020/12/18 05:10:31;;;;;;;27.92;15.63;;;5.90;99.90;;;;;;4924540;29;20035;-72
2020/12/18 05:13:03;;;;;;;35.47;15.98;;;5.90;99.90;;;;;;4938176;28;20464;-72
2020/12/18 05:15:41;;;;;;;29.48;15.38;;;5.90;99.90;;;;;;4918769;29;20036;-72
2020/12/18 05:18:29;;;;;;;28.60;15.48;;;5.90;99.90;;;;;;4918641;29;20063;-72
2020/12/18 05:20:56;;;;;;;27.65;15.77;;;5.90;99.90;;;;;;4922463;29;20032;-72
2020/12/18 05:23:42;;;;;;;26.98;15.25;;;5.90;99.90;;;;;;4923122;28;20042;-72
2020/12/18 05:26:30;;;;;;;29.17;16.10;;;5.80;99.90;;;;;;4922304;29;20095;-72
2020/12/18 05:29:03;;;;;;;29.83;15.68;;;5.80;99.90;;;;;;4922346;29;20043;-72
2020/12/18 05:31:31;;;;;;;28.77;15.60;;;5.80;99.90;;;;;;4938689;28;20059;-72
2020/12/18 05:34:15;;;;;;;24.77;14.90;;;5.80;99.90;;;;;;4924015;29;20046;-70
2020/12/18 05:37:12;;;;;;;29.05;15.68;;;5.80;99.90;;;;;;4923048;29;20083;-71
2020/12/18 05:39:58;;;;;;;29.23;15.77;;;5.80;99.90;;;;;;4937323;29;20059;-71
2020/12/18 05:42:44;;;;;;;;;;;5.80;99.90;;;;;;4936791;28;20043;-70
2020/12/18 05:45:13;;;;;;;37.58;16.67;;;5.70;99.90;;;;;;4938793;28;19922;-69
2020/12/18 05:48:03;;;;;;;29.85;16.58;;;5.60;99.90;;;;;;4939257;28;20143;-70
2020/12/18 05:51:04;;;;;;;30.30;16.05;;;5.60;99.90;;;;;;4924423;29;20059;-70
2020/12/18 05:53:32;;;;;;;29.75;15.30;;;5.60;99.90;;;;;;4921901;29;20079;-68
2020/12/18 05:56:32;;;;;;;34.90;17.15;;;5.60;99.90;;;;;;4923012;29;20047;-69
2020/12/18 05:59:12;;;;;;;31.67;17.00;;;5.60;99.90;;;;;;4937874;28;20119;-69
2020/12/18 06:01:48;;;;;;;30.48;16.13;;;5.60;99.90;;;;;;4922234;29;20039;-68
2020/12/18 06:04:46;;;;;;;31.45;17.20;;;5.60;99.90;;;;;;4921743;29;20070;-68
2020/12/18 06:07:25;;;;;;;26.27;15.82;;;5.50;99.90;;;;;;4922421;29;20039;-68
2020/12/18 06:10:07;;;;;;;30.05;15.93;;;5.40;99.90;;;;;;4938503;28;20100;-71
2020/12/18 06:13:01;;;;;;;29.83;15.85;;;5.40;99.90;;;;;;4922653;28;20782;-70
2020/12/18 06:15:35;;;;;;;29.33;15.07;;;5.20;99.90;;;;;;4937678;29;20027;-71
2020/12/18 06:18:04;;;;;;;29.35;15.10;;;5.20;99.90;;;;;;4938173;28;20035;-71
2020/12/18 06:20:35;;;;;;;30.15;15.05;;;5.10;99.90;;;;;;4937522;28;20032;-71
2020/12/18 06:23:04;;;;;;;29.13;16.40;;;5.10;99.90;;;;;;4938489;28;20049;-71
2020/12/18 06:25:48;;;;;;;38.95;17.90;;;5.10;99.90;;;;;;4937693;28;20035;-71
2020/12/18 06:28:33;;;;;;;31.23;16.60;;;5.10;99.90;;;;;;4922624;29;20134;-71
2020/12/18 06:31:35;;;;;;;37.80;15.90;;;5.10;99.90;;;;;;4938419;28;20032;-70
2020/12/18 06:34:26;;;;;;;29.50;16.15;;;5.20;99.90;;;;;;4927081;29;20040;-70
2020/12/18 06:37:10;;;;;;;;;;;5.10;99.90;;;;;;4924526;29;20047;-71
2020/12/18 06:39:59;;;;;;;27.08;14.10;;;5.10;99.90;;;;;;4925114;28;19914;-71
2020/12/18 06:42:46;;;;;;;30.17;15.68;;;5.10;99.90;;;;;;4923936;29;20062;-71
2020/12/18 06:46:03;;;;;;;30.08;14.55;;;5.10;99.90;;;;;;4922505;29;20455;-70
2020/12/18 06:49:01;;;;;;;28.08;14.13;;;5.10;99.90;;;;;;4933111;29;20142;-70
2020/12/18 06:51:46;;;;;;;32.88;14.68;;;5.10;99.90;;;;;;4917750;29;20175;-70
2020/12/18 06:54:34;;;;;;;33.33;14.90;;;5.10;99.90;;;;;;4925457;29;20718;-70
2020/12/18 06:57:21;;;;;;;31.20;14.15;;;5.00;99.90;;;;;;4937544;28;20034;-70
2020/12/18 06:59:49;;;;;;;27.00;14.95;;;5.00;99.90;;;;;;4918901;29;20024;-70
2020/12/18 07:02:34;;;;;;;25.52;14.55;;;5.00;99.90;;;;;;4923887;29;20459;-70
2020/12/18 07:04:59;;;;;;;33.00;17.00;;;4.90;99.90;;;;;;4919348;29;20116;-70
2020/12/18 07:07:25;;;;;;;30.55;15.32;;;4.80;99.90;;;;;;4923838;29;20812;-69
2020/12/18 07:09:52;;;;;;;36.53;18.17;;;4.80;99.90;;;;;;4923795;29;20175;-69
2020/12/18 07:12:18;;;;;;;31.23;14.70;;;4.80;99.90;;;;;;4923031;29;20447;-69
2020/12/18 07:14:48;;;;;;;29.60;15.88;;;4.80;99.90;;;;;;4923541;29;20036;-69
2020/12/18 07:17:15;;;;;;;36.05;16.15;;;4.90;99.90;;;;;;4922907;29;20114;-69
2020/12/18 07:19:41;;;;;;;29.88;15.90;;;5.00;99.90;;;;;;4916443;29;20110;-70
2020/12/18 07:22:13;;;;;;;30.83;16.27;;;5.00;99.90;;;;;;4937923;28;20055;-70
2020/12/18 07:24:39;;;;;;;31.55;16.05;;;5.10;99.90;;;;;;4937470;28;20074;-69
2020/12/18 07:27:04;;;;;;;33.60;16.83;;;5.10;99.90;;;;;;4922534;29;21019;-69
2020/12/18 07:29:31;;;;;;;33.08;15.77;;;5.10;99.90;;;;;;4923254;29;20115;-69
2020/12/18 07:31:57;;;;;;;26.75;15.50;;;5.10;99.90;;;;;;4922918;29;20039;-69
2020/12/18 07:34:22;;;;;;;30.73;16.33;;;5.10;99.90;;;;;;4922916;29;20118;-69
2020/12/18 07:36:48;;;;;;;37.97;19.33;;;5.30;99.90;;;;;;4922767;29;20039;-71
2020/12/18 07:39:14;;;;;;;28.48;15.63;;;5.30;99.90;;;;;;4923417;29;20043;-72
2020/12/18 07:41:39;;;;;;;29.00;14.93;;;5.30;99.90;;;;;;4922761;29;20055;-71
2020/12/18 07:44:07;;;;;;;33.17;16.13;;;5.20;99.90;;;;;;4944416;28;20713;-69
2020/12/18 07:46:35;;;;;;;30.15;15.25;;;5.20;99.90;;;;;;4921974;29;20668;-69
2020/12/18 07:49:11;;;;;;;32.53;15.93;;;5.20;99.90;;;;;;4923184;29;20030;-69
2020/12/18 07:51:37;;;;;;;31.25;14.20;;;5.20;99.90;;;;;;4923172;29;20468;-69
2020/12/18 07:54:03;;;;;;;26.55;15.65;;;5.10;99.90;;;;;;4923352;29;20138;-69
2020/12/18 07:56:29;;;;;;;32.90;14.75;;;5.20;99.90;;;;;;4922087;29;20508;-69
2020/12/18 07:59:05;;;;;;;27.65;15.07;;;5.10;99.90;;;;;;4923103;29;20028;-72
2020/12/18 08:01:33;;;;;;;31.25;16.05;;;5.00;99.90;;;;;;4921787;29;20035;-73
2020/12/18 08:04:12;;;;;;;29.08;15.40;;;5.10;99.90;;;;;;4923434;29;20436;-71
2020/12/18 08:06:38;;;;;;;48.13;22.65;;;5.10;99.90;;;;;;4922303;29;20050;-70
2020/12/18 08:09:06;;;;;;;30.20;15.18;;;5.10;99.90;;;;;;4922894;29;20028;-70
2020/12/18 08:11:34;;;;;;;29.10;15.48;;;5.20;99.90;;;;;;4921850;29;20038;-70
2020/12/18 08:14:01;;;;;;;27.27;15.60;;;5.20;99.90;;;;;;4922265;29;20054;-70
2020/12/18 08:16:29;;;;;;;26.52;14.93;;;5.20;99.90;;;;;;4935866;29;20160;-70
2020/12/18 08:19:00;;;;;;;26.52;14.82;;;5.20;99.90;;;;;;4919807;29;20043;-71
2020/12/18 08:21:36;;;;;;;36.05;16.33;;;5.30;99.90;;;;;;4920427;29;20042;-70
2020/12/18 08:24:32;;;;;;;29.65;15.13;;;5.40;99.90;;;;;;4920917;29;20042;-70
2020/12/18 08:27:17;;;;;;;28.45;14.65;;;5.40;99.90;;;;;;4916474;29;20047;-70
2020/12/18 08:29:47;;;;;;;23.50;10.88;;;5.40;99.90;;;;;;4921757;29;20099;-70
2020/12/18 08:32:25;;;;;;;27.58;14.13;;;5.50;99.90;;;;;;4920986;29;20042;-70
2020/12/18 08:35:02;;;;;;;33.08;15.65;;;5.50;99.90;;;;;;4917443;29;20066;-71
2020/12/18 08:37:28;;;;;;;25.48;13.45;;;5.60;99.90;;;;;;4922105;29;20059;-70
2020/12/18 08:39:54;;;;;;;29.23;14.68;;;5.60;99.90;;;;;;4924862;29;20693;-70
2020/12/18 08:42:20;;;;;;;29.80;14.68;;;5.70;99.90;;;;;;4920335;29;20040;-68
2020/12/18 08:44:46;;;;;;;27.27;14.68;;;5.70;99.90;;;;;;4914959;29;20044;-74
2020/12/18 08:47:26;;;;;;;27.83;14.93;;;5.80;99.90;;;;;;4924252;29;20039;-70
2020/12/18 08:49:54;;;;;;;26.15;14.43;;;5.80;99.90;;;;;;4925321;29;20043;-70
2020/12/18 08:52:28;;;;;;;26.80;14.32;;;5.90;99.90;;;;;;4924133;29;20046;-70
2020/12/18 08:55:04;;;;;;;27.10;14.60;;;6.00;99.90;;;;;;4924963;29;20067;-70
2020/12/18 08:57:31;;;;;;;22.25;13.02;;;6.00;99.90;;;;;;4923609;29;20047;-70
2020/12/18 09:00:16;;;;;;;25.52;13.23;;;6.10;99.90;;;;;;4925004;29;20027;-69
2020/12/18 09:02:49;;;;;;;25.98;14.05;;;6.20;99.90;;;;;;4918173;29;20051;-70
2020/12/18 09:05:30;;;;;;;29.05;13.77;;;6.30;99.90;;;;;;4924808;29;20059;-70
2020/12/18 09:08:05;;;;;;;24.90;13.25;;;6.40;99.90;;;;;;4921148;29;20032;-70
2020/12/18 09:10:42;;;;;;;23.88;12.43;;;6.40;99.90;;;;;;4924716;29;20040;-70
2020/12/18 09:13:14;;;;;;;22.77;13.00;;;6.40;99.90;;;;;;4925191;29;20039;-70
2020/12/18 09:15:41;;;;;;;21.58;12.65;;;6.40;99.90;;;;;;4924913;29;20034;-70
2020/12/18 09:18:12;;;;;;;25.63;12.20;;;6.50;99.90;;;;;;4924856;29;20040;-70
2020/12/18 09:20:40;;;;;;;25.17;12.98;;;6.60;99.90;;;;;;4925594;29;20528;-70
2020/12/18 09:23:11;;;;;;;21.27;12.90;;;6.60;99.90;;;;;;4939380;29;20043;-70
2020/12/18 09:25:42;;;;;;;22.83;12.13;;;6.60;99.90;;;;;;4924865;29;20047;-70
2020/12/18 09:28:17;;;;;;;19.48;11.68;;;6.70;99.90;;;;;;4925361;29;20032;-69
2020/12/18 09:31:02;;;;;;;26.23;12.23;;;6.70;99.90;;;;;;4918810;29;20071;-69
2020/12/18 09:33:30;;;;;;;28.85;12.55;;;6.70;99.90;;;;;;4939696;28;20865;-69
2020/12/18 09:36:07;;;;;;;20.08;12.05;;;6.90;99.90;;;;;;4925389;29;20040;-70
2020/12/18 09:38:34;;;;;;;24.45;11.88;;;6.90;99.90;;;;;;4922772;29;20470;-69
2020/12/18 09:41:02;;;;;;;23.83;12.38;;;7.10;99.90;;;;;;4924428;29;20051;-69
2020/12/18 09:43:28;;;;;;;16.58;10.65;;;7.10;99.90;;;;;;4924190;29;20073;-70
2020/12/18 09:45:55;;;;;;;22.02;11.70;;;7.10;99.90;;;;;;4924282;29;20522;-70
2020/12/18 09:48:21;;;;;;;19.92;10.98;;;7.20;99.90;;;;;;4925258;29;20043;-71
2020/12/18 09:50:52;;;;;;;36.50;17.48;;;7.30;99.90;;;;;;4925765;29;20603;-70
2020/12/18 09:53:17;;;;;;;25.25;12.77;;;7.50;99.90;;;;;;4940129;28;20035;-69
2020/12/18 09:55:43;;;;;;;70.75;32.90;;;7.60;99.90;;;;;;4923669;29;20043;-69
2020/12/18 09:58:09;;;;;;;18.75;10.52;;;7.70;99.90;;;;;;4924847;29;20036;-70
2020/12/18 10:00:35;;;;;;;23.75;11.02;;;7.80;99.90;;;;;;4938641;28;20028;-69
2020/12/18 10:03:01;;;;;;;18.08;10.13;;;7.80;99.90;;;;;;4924104;29;20136;-70
2020/12/18 10:05:27;;;;;;;18.02;9.68;;;7.90;99.90;;;;;;4924007;29;20074;-69
2020/12/18 10:07:53;;;;;;;17.88;10.18;;;8.00;99.90;;;;;;4924899;29;20031;-70
2020/12/18 10:10:19;;;;;;;18.42;10.10;;;8.00;99.90;;;;;;4923997;29;20042;-70
2020/12/18 10:12:45;;;;;;;20.85;10.57;;;8.10;99.90;;;;;;4924461;29;20083;-69
2020/12/18 10:15:11;;;;;;;17.65;9.68;;;8.10;99.90;;;;;;4923133;29;20047;-69
2020/12/18 10:17:37;;;;;;;20.38;9.18;;;8.10;99.90;;;;;;4923506;29;20042;-70
2020/12/18 10:20:03;;;;;;;17.35;9.20;;;8.10;99.90;;;;;;4923131;29;20047;-70
2020/12/18 10:22:29;;;;;;;19.05;9.30;;;8.20;99.90;;;;;;4923579;29;20107;-70
2020/12/18 10:24:55;;;;;;;15.30;9.18;;;8.20;99.90;;;;;;4937156;29;20068;-70
2020/12/18 10:27:20;;;;;;;16.70;8.60;;;8.30;99.90;;;;;;4923194;29;20039;-70
2020/12/18 10:29:46;;;;;;;15.93;8.32;;;8.40;99.90;;;;;;4923305;29;20036;-70
2020/12/18 10:32:12;;;;;;;18.85;9.02;;;8.50;99.90;;;;;;4937073;28;20042;-70
2020/12/18 10:34:38;;;;;;;17.23;8.07;;;8.60;99.90;;;;;;4923750;29;20480;-70
2020/12/18 10:37:04;;;;;;;17.13;8.48;;;8.60;99.90;;;;;;4937577;29;20054;-70
2020/12/18 10:39:30;;;;;;;17.70;8.38;;;8.70;99.90;;;;;;4922961;29;20036;-70
2020/12/18 10:41:56;;;;;;;16.40;7.68;;;8.90;99.90;;;;;;4924040;29;20035;-70
2020/12/18 10:44:21;;;;;;;10.95;7.25;;;9.10;99.90;;;;;;4923931;29;20524;-69
2020/12/18 10:46:48;;;;;;;15.82;7.13;;;9.10;99.90;;;;;;4923143;29;20043;-70
2020/12/18 10:49:17;;;;;;;18.25;7.30;;;9.30;99.90;;;;;;4924290;29;20051;-70
2020/12/18 10:51:44;;;;;;;21.30;9.02;;;9.40;99.90;;;;;;4924198;29;20032;-70
2020/12/18 10:54:10;;;;;;;18.33;7.18;;;9.30;99.90;;;;;;4923107;29;20031;-70
2020/12/18 10:56:40;;;;;;;11.82;7.05;;;9.40;99.90;;;;;;4923432;29;20563;-71
2020/12/18 10:59:06;;;;;;;11.00;6.60;;;9.30;99.90;;;;;;4922657;29;20134;-71
2020/12/18 11:01:32;;;;;;;16.88;6.65;;;9.30;99.90;;;;;;4923233;29;20720;-71
2020/12/18 11:03:57;;;;;;;12.52;5.75;;;9.20;99.90;;;;;;4923865;29;20027;-72
2020/12/18 11:06:23;;;;;;;10.70;5.70;;;9.20;99.90;;;;;;4937334;28;20495;-72
2020/12/18 11:08:49;;;;;;;12.57;5.75;;;9.40;99.90;;;;;;4923299;29;20452;-71
2020/12/18 11:11:15;;;;;;;10.82;5.28;;;9.40;99.90;;;;;;4937507;28;20031;-71
2020/12/18 11:13:41;;;;;;;12.05;5.60;;;9.70;99.90;;;;;;4923899;29;20789;-71
2020/12/18 11:16:08;;;;;;;12.27;5.93;;;9.80;99.90;;;;;;4936224;28;20063;-71
2020/12/18 11:18:34;;;;;;;16.27;7.15;;;9.70;99.90;;;;;;4937399;28;20449;-71
2020/12/18 11:21:04;;;;;;;10.43;6.22;;;9.70;99.90;;;;;;4937560;28;20032;-72
2020/12/18 11:23:31;;;;;;;16.50;7.57;;;10.00;99.90;;;;;;4921838;29;20799;-71
2020/12/18 11:25:57;;;;;;;12.48;5.43;;;10.10;99.90;;;;;;4922696;29;20915;-71
2020/12/18 11:28:23;;;;;;;9.02;5.80;;;10.20;99.90;;;;;;4937970;29;20027;-71
2020/12/18 11:30:49;;;;;;;8.90;5.05;;;10.40;99.90;;;;;;4922420;29;20750;-70
2020/12/18 11:33:15;;;;;;;10.88;6.07;;;10.30;99.90;;;;;;4922776;29;20040;-72
2020/12/18 11:35:41;;;;;;;9.85;4.57;;;10.50;99.90;;;;;;4922297;29;20107;-72
2020/12/18 11:38:07;;;;;;;12.77;5.20;;;10.70;99.90;;;;;;4922713;29;20125;-72
2020/12/18 11:40:33;;;;;;;12.23;4.82;;;10.80;99.90;;;;;;4921685;29;20126;-72
2020/12/18 11:42:59;;;;;;;11.23;5.03;;;11.00;99.90;;;;;;4922869;29;20031;-71
2020/12/18 11:45:24;;;;;;;9.20;5.07;;;10.80;99.90;;;;;;4935570;28;20599;-71
2020/12/18 11:47:50;;;;;;;14.95;5.63;;;10.70;99.90;;;;;;4923661;29;20040;-71
2020/12/18 11:50:17;;;;;;;10.32;5.00;;;10.60;99.90;;;;;;4922977;29;20031;-70
2020/12/18 11:52:43;;;;;;;10.25;4.85;;;10.70;99.90;;;;;;4937270;29;20106;-72
2020/12/18 11:55:08;;;;;;;7.10;4.22;;;11.10;99.90;;;;;;4922530;29;20441;-72
2020/12/18 11:57:34;;;;;;;12.20;3.97;;;11.50;99.90;;;;;;4941909;28;20040;-71
2020/12/18 12:00:00;;;;;;;8.93;3.60;;;11.50;99.90;;;;;;4924837;29;20036;-71
2020/12/18 12:02:25;;;;;;;9.07;3.60;;;11.40;99.90;;;;;;4923346;29;20039;-71
2020/12/18 12:04:51;;;;;;;15.02;6.03;;;11.30;99.90;;;;;;4922957;29;20090;-71
2020/12/18 12:07:17;;;;;;;10.35;4.93;;;11.30;99.90;;;;;;4920861;29;20040;-71
2020/12/18 12:09:43;;;;;;;8.55;4.63;;;11.30;99.90;;;;;;4923466;29;20504;-71
2020/12/18 12:12:12;;;;;;;11.18;5.60;;;11.50;99.90;;;;;;4926543;29;20083;-70
2020/12/18 12:14:38;;;;;;;12.40;5.32;;;11.80;99.90;;;;;;4926390;29;20032;-70
2020/12/18 12:17:04;;;;;;;11.05;5.18;;;12.00;99.90;;;;;;4926200;29;20036;-70
2020/12/18 12:19:30;;;;;;;10.68;5.18;;;12.20;99.90;;;;;;4940088;28;20899;-70
2020/12/18 12:21:57;;;;;;;11.57;5.20;;;12.30;99.90;;;;;;4940988;29;20036;-70
2020/12/18 12:24:23;;;;;;;10.38;5.43;;;12.50;99.90;;;;;;4926434;29;20031;-71
2020/12/18 12:26:49;;;;;;;9.57;4.65;;;12.40;99.90;;;;;;4940499;29;20058;-70
2020/12/18 12:29:15;;;;;;;11.73;5.03;;;12.00;99.90;;;;;;4925567;29;20657;-70
2020/12/18 12:31:41;;;;;;;9.68;5.07;;;11.90;99.90;;;;;;4940554;29;20031;-70
2020/12/18 12:34:06;;;;;;;11.95;4.97;;;11.60;99.90;;;;;;4925282;29;20126;-72
2020/12/18 12:36:32;;;;;;;14.80;5.70;;;11.50;99.90;;;;;;4939445;28;20118;-71
2020/12/18 12:38:58;;;;;;;11.95;5.90;;;11.60;99.90;;;;;;4926009;29;20034;-71
2020/12/18 12:41:24;;;;;;;10.55;5.53;;;11.40;99.90;;;;;;4940212;29;20094;-71
2020/12/18 12:43:50;;;;;;;13.27;6.13;;;11.30;99.90;;;;;;4925627;29;20128;-71
2020/12/18 12:46:16;;;;;;;13.00;5.80;;;11.10;99.90;;;;;;4924797;29;20095;-71
2020/12/18 12:48:42;;;;;;;14.25;6.13;;;10.90;99.90;;;;;;4940010;29;20039;-71
2020/12/18 12:51:08;;;;;;;12.80;5.97;;;11.00;99.90;;;;;;4940343;29;20134;-71
2020/12/18 12:53:35;;;;;;;15.15;6.97;;;11.00;99.90;;;;;;4925024;29;20131;-71
2020/12/18 12:56:01;;;;;;;12.23;5.57;;;10.90;99.90;;;;;;4939294;29;20039;-71
2020/12/18 12:58:26;;;;;;;10.18;5.32;;;11.10;99.90;;;;;;4925560;29;20040;-71